sensor_id;sensor_type;location;lat;lon;timestamp;P1;durP1;ratioP1;P2;durP2;ratioP2
45650;SDS011;31365;48.858;8.530;2024-01-30T00:02:26;4.40;;;4.10;;
45650;SDS011;31365;48.858;8.530;2024-01-30T00:04:54;4.50;;;4.20;;
45650;SDS011;31365;48.858;8.530;2024-01-30T00:07:22;4.27;;;3.97;;
45650;SDS011;31365;48.858;8.530;2024-01-30T00:09:50;4.63;;;4.33;;
45650;SDS011;31365;48.858;8.530;2024-01-30T00:12:19;4.10;;;3.90;;
45650;SDS011;31365;48.858;8.530;2024-01-30T00:14:47;4.50;;;4.20;;
45650;SDS011;31365;48.858;8.530;2024-01-30T00:17:20;4.40;;;4.10;;
45650;SDS011;31365;48.858;8.530;2024-01-30T00:19:49;4.97;;;4.13;;
45650;SDS011;31365;48.858;8.530;2024-01-30T00:22:18;4.50;;;4.20;;
45650;SDS011;31365;48.858;8.530;2024-01-30T00:24:46;4.30;;;4.00;;
45650;SDS011;31365;48.858;8.530;2024-01-30T00:27:15;4.07;;;3.87;;
45650;SDS011;31365;48.858;8.530;2024-01-30T00:29:43;4.67;;;4.27;;
45650;SDS011;31365;48.858;8.530;2024-01-30T00:32:12;4.40;;;4.10;;
45650;SDS011;31365;48.858;8.530;2024-01-30T00:34:41;4.17;;;3.93;;
45650;SDS011;31365;48.858;8.530;2024-01-30T00:37:11;4.60;;;4.30;;
45650;SDS011;31365;48.858;8.530;2024-01-30T00:39:39;4.27;;;3.97;;
45650;SDS011;31365;48.858;8.530;2024-01-30T00:42:08;4.10;;;3.80;;
45650;SDS011;31365;48.858;8.530;2024-01-30T00:44:36;4.40;;;4.03;;
45650;SDS011;31365;48.858;8.530;2024-01-30T00:47:05;4.43;;;4.10;;
45650;SDS011;31365;48.858;8.530;2024-01-30T00:49:33;4.13;;;3.90;;
45650;SDS011;31365;48.858;8.530;2024-01-30T00:52:02;4.50;;;4.20;;
45650;SDS011;31365;48.858;8.530;2024-01-30T00:54:32;4.57;;;4.17;;
45650;SDS011;31365;48.858;8.530;2024-01-30T00:57:01;4.30;;;3.83;;
45650;SDS011;31365;48.858;8.530;2024-01-30T00:59:29;4.20;;;4.00;;
45650;SDS011;31365;48.858;8.530;2024-01-30T01:01:58;4.23;;;3.93;;
45650;SDS011;31365;48.858;8.530;2024-01-30T01:04:27;4.10;;;3.80;;
45650;SDS011;31365;48.858;8.530;2024-01-30T01:06:55;4.20;;;3.90;;
45650;SDS011;31365;48.858;8.530;2024-01-30T01:09:24;4.40;;;4.10;;
45650;SDS011;31365;48.858;8.530;2024-01-30T01:11:54;4.70;;;4.40;;
45650;SDS011;31365;48.858;8.530;2024-01-30T01:14:23;4.50;;;4.20;;
45650;SDS011;31365;48.858;8.530;2024-01-30T01:16:51;4.30;;;4.00;;
45650;SDS011;31365;48.858;8.530;2024-01-30T01:19:20;4.80;;;4.00;;
45650;SDS011;31365;48.858;8.530;2024-01-30T01:21:48;4.27;;;3.97;;
45650;SDS011;31365;48.858;8.530;2024-01-30T01:24:17;4.17;;;3.97;;
45650;SDS011;31365;48.858;8.530;2024-01-30T01:26:46;3.87;;;3.67;;
45650;SDS011;31365;48.858;8.530;2024-01-30T01:29:16;4.10;;;3.90;;
45650;SDS011;31365;48.858;8.530;2024-01-30T01:31:44;4.30;;;4.00;;
45650;SDS011;31365;48.858;8.530;2024-01-30T01:34:13;4.00;;;3.80;;
45650;SDS011;31365;48.858;8.530;2024-01-30T01:36:42;4.17;;;3.97;;
45650;SDS011;31365;48.858;8.530;2024-01-30T01:39:10;3.90;;;3.70;;
45650;SDS011;31365;48.858;8.530;2024-01-30T01:41:39;3.57;;;3.37;;
45650;SDS011;31365;48.858;8.530;2024-01-30T01:44:07;4.13;;;3.83;;
45650;SDS011;31365;48.858;8.530;2024-01-30T01:46:37;3.97;;;3.77;;
45650;SDS011;31365;48.858;8.530;2024-01-30T01:49:06;4.27;;;3.97;;
45650;SDS011;31365;48.858;8.530;2024-01-30T01:51:37;4.10;;;3.80;;
45650;SDS011;31365;48.858;8.530;2024-01-30T01:54:07;3.70;;;3.50;;
45650;SDS011;31365;48.858;8.530;2024-01-30T01:56:36;4.50;;;4.30;;
45650;SDS011;31365;48.858;8.530;2024-01-30T01:59:06;4.40;;;4.07;;
45650;SDS011;31365;48.858;8.530;2024-01-30T02:01:36;5.07;;;3.93;;
45650;SDS011;31365;48.858;8.530;2024-01-30T02:04:07;4.00;;;3.80;;
45650;SDS011;31365;48.858;8.530;2024-01-30T02:06:36;4.87;;;4.37;;
45650;SDS011;31365;48.858;8.530;2024-01-30T02:09:05;5.00;;;4.60;;
45650;SDS011;31365;48.858;8.530;2024-01-30T02:11:35;4.43;;;4.13;;
45650;SDS011;31365;48.858;8.530;2024-01-30T02:14:04;4.70;;;4.40;;
45650;SDS011;31365;48.858;8.530;2024-01-30T02:16:33;4.53;;;4.20;;
45650;SDS011;31365;48.858;8.530;2024-01-30T02:19:03;4.40;;;4.10;;
45650;SDS011;31365;48.858;8.530;2024-01-30T02:21:33;4.70;;;4.40;;
45650;SDS011;31365;48.858;8.530;2024-01-30T02:24:02;4.90;;;4.60;;
45650;SDS011;31365;48.858;8.530;2024-01-30T02:26:32;4.60;;;4.30;;
45650;SDS011;31365;48.858;8.530;2024-01-30T02:29:00;4.50;;;4.23;;
45650;SDS011;31365;48.858;8.530;2024-01-30T02:31:29;4.73;;;4.43;;
45650;SDS011;31365;48.858;8.530;2024-01-30T02:33:57;4.00;;;3.80;;
45650;SDS011;31365;48.858;8.530;2024-01-30T02:36:26;4.53;;;4.30;;
45650;SDS011;31365;48.858;8.530;2024-01-30T02:38:55;4.53;;;4.20;;
45650;SDS011;31365;48.858;8.530;2024-01-30T02:41:24;4.50;;;4.20;;
45650;SDS011;31365;48.858;8.530;2024-01-30T02:43:52;4.07;;;3.87;;
45650;SDS011;31365;48.858;8.530;2024-01-30T02:46:21;4.90;;;4.50;;
45650;SDS011;31365;48.858;8.530;2024-01-30T02:48:50;4.20;;;3.90;;
45650;SDS011;31365;48.858;8.530;2024-01-30T02:51:18;4.50;;;4.20;;
45650;SDS011;31365;48.858;8.530;2024-01-30T02:53:46;4.50;;;4.20;;
45650;SDS011;31365;48.858;8.530;2024-01-30T02:56:16;4.30;;;4.10;;
45650;SDS011;31365;48.858;8.530;2024-01-30T02:58:44;4.53;;;4.23;;
45650;SDS011;31365;48.858;8.530;2024-01-30T03:01:13;4.57;;;4.20;;
45650;SDS011;31365;48.858;8.530;2024-01-30T03:03:41;4.27;;;4.07;;
45650;SDS011;31365;48.858;8.530;2024-01-30T03:06:10;4.10;;;3.80;;
45650;SDS011;31365;48.858;8.530;2024-01-30T03:08:39;4.33;;;4.00;;
45650;SDS011;31365;48.858;8.530;2024-01-30T03:11:07;4.03;;;3.77;;
45650;SDS011;31365;48.858;8.530;2024-01-30T03:13:37;4.33;;;4.10;;
45650;SDS011;31365;48.858;8.530;2024-01-30T03:16:08;4.80;;;4.40;;
45650;SDS011;31365;48.858;8.530;2024-01-30T03:18:37;4.50;;;4.20;;
45650;SDS011;31365;48.858;8.530;2024-01-30T03:21:06;4.50;;;4.30;;
45650;SDS011;31365;48.858;8.530;2024-01-30T03:23:34;4.27;;;4.07;;
45650;SDS011;31365;48.858;8.530;2024-01-30T03:26:02;4.23;;;3.90;;
45650;SDS011;31365;48.858;8.530;2024-01-30T03:28:33;4.37;;;4.07;;
45650;SDS011;31365;48.858;8.530;2024-01-30T03:31:03;8.10;;;4.20;;
45650;SDS011;31365;48.858;8.530;2024-01-30T03:33:32;4.50;;;4.20;;
45650;SDS011;31365;48.858;8.530;2024-01-30T03:36:02;3.93;;;3.73;;
45650;SDS011;31365;48.858;8.530;2024-01-30T03:38:32;4.13;;;3.93;;
45650;SDS011;31365;48.858;8.530;2024-01-30T03:41:00;4.30;;;4.10;;
45650;SDS011;31365;48.858;8.530;2024-01-30T03:43:28;4.33;;;4.03;;
45650;SDS011;31365;48.858;8.530;2024-01-30T03:45:57;4.60;;;4.30;;
45650;SDS011;31365;48.858;8.530;2024-01-30T03:48:27;4.30;;;4.00;;
45650;SDS011;31365;48.858;8.530;2024-01-30T03:50:57;4.30;;;3.90;;
45650;SDS011;31365;48.858;8.530;2024-01-30T03:53:26;4.20;;;4.00;;
45650;SDS011;31365;48.858;8.530;2024-01-30T03:55:55;4.50;;;4.20;;
45650;SDS011;31365;48.858;8.530;2024-01-30T03:58:24;4.53;;;4.30;;
45650;SDS011;31365;48.858;8.530;2024-01-30T04:00:52;4.40;;;4.10;;
45650;SDS011;31365;48.858;8.530;2024-01-30T04:03:21;4.40;;;4.10;;
45650;SDS011;31365;48.858;8.530;2024-01-30T04:05:52;4.47;;;4.23;;
45650;SDS011;31365;48.858;8.530;2024-01-30T04:08:21;4.30;;;4.10;;
45650;SDS011;31365;48.858;8.530;2024-01-30T04:10:49;4.77;;;4.37;;
45650;SDS011;31365;48.858;8.530;2024-01-30T04:13:18;3.83;;;3.63;;
45650;SDS011;31365;48.858;8.530;2024-01-30T04:15:47;5.13;;;4.77;;
45650;SDS011;31365;48.858;8.530;2024-01-30T04:18:15;4.90;;;4.40;;
45650;SDS011;31365;48.858;8.530;2024-01-30T04:20:43;4.43;;;4.23;;
45650;SDS011;31365;48.858;8.530;2024-01-30T04:23:14;4.90;;;4.47;;
45650;SDS011;31365;48.858;8.530;2024-01-30T04:25:43;4.50;;;4.20;;
45650;SDS011;31365;48.858;8.530;2024-01-30T04:28:11;4.67;;;4.47;;
45650;SDS011;31365;48.858;8.530;2024-01-30T04:30:40;4.83;;;4.43;;
45650;SDS011;31365;48.858;8.530;2024-01-30T04:33:09;3.97;;;3.73;;
45650;SDS011;31365;48.858;8.530;2024-01-30T04:35:38;4.40;;;4.20;;
45650;SDS011;31365;48.858;8.530;2024-01-30T04:38:07;4.17;;;3.97;;
45650;SDS011;31365;48.858;8.530;2024-01-30T04:40:36;5.10;;;4.70;;
45650;SDS011;31365;48.858;8.530;2024-01-30T04:43:05;5.10;;;4.70;;
45650;SDS011;31365;48.858;8.530;2024-01-30T04:45:33;6.13;;;5.63;;
45650;SDS011;31365;48.858;8.530;2024-01-30T04:48:03;5.10;;;4.80;;
45650;SDS011;31365;48.858;8.530;2024-01-30T04:50:32;4.57;;;4.37;;
45650;SDS011;31365;48.858;8.530;2024-01-30T04:53:01;4.17;;;3.90;;
45650;SDS011;31365;48.858;8.530;2024-01-30T04:55:29;4.63;;;4.33;;
45650;SDS011;31365;48.858;8.530;2024-01-30T04:57:59;4.57;;;4.27;;
45650;SDS011;31365;48.858;8.530;2024-01-30T05:00:28;4.87;;;4.40;;
45650;SDS011;31365;48.858;8.530;2024-01-30T05:02:56;5.50;;;5.10;;
45650;SDS011;31365;48.858;8.530;2024-01-30T05:05:24;5.00;;;4.60;;
45650;SDS011;31365;48.858;8.530;2024-01-30T05:07:53;4.70;;;4.33;;
45650;SDS011;31365;48.858;8.530;2024-01-30T05:10:21;4.47;;;4.17;;
45650;SDS011;31365;48.858;8.530;2024-01-30T05:12:50;5.00;;;4.70;;
45650;SDS011;31365;48.858;8.530;2024-01-30T05:15:20;6.67;;;6.07;;
45650;SDS011;31365;48.858;8.530;2024-01-30T05:17:48;16.67;;;11.37;;
45650;SDS011;31365;48.858;8.530;2024-01-30T05:20:17;18.73;;;12.43;;
45650;SDS011;31365;48.858;8.530;2024-01-30T05:22:47;17.90;;;11.77;;
45650;SDS011;31365;48.858;8.530;2024-01-30T05:25:16;17.00;;;12.30;;
45650;SDS011;31365;48.858;8.530;2024-01-30T05:27:44;11.30;;;9.83;;
45650;SDS011;31365;48.858;8.530;2024-01-30T05:30:13;9.37;;;8.47;;
45650;SDS011;31365;48.858;8.530;2024-01-30T05:32:43;8.20;;;7.50;;
45650;SDS011;31365;48.858;8.530;2024-01-30T05:35:12;7.07;;;6.57;;
45650;SDS011;31365;48.858;8.530;2024-01-30T05:37:40;6.57;;;6.07;;
45650;SDS011;31365;48.858;8.530;2024-01-30T05:40:09;5.17;;;4.80;;
45650;SDS011;31365;48.858;8.530;2024-01-30T05:42:38;4.87;;;4.67;;
45650;SDS011;31365;48.858;8.530;2024-01-30T05:45:07;5.20;;;4.90;;
45650;SDS011;31365;48.858;8.530;2024-01-30T05:47:36;5.07;;;4.77;;
45650;SDS011;31365;48.858;8.530;2024-01-30T05:50:07;5.60;;;5.10;;
45650;SDS011;31365;48.858;8.530;2024-01-30T05:52:35;5.37;;;5.07;;
45650;SDS011;31365;48.858;8.530;2024-01-30T05:55:04;5.80;;;5.00;;
45650;SDS011;31365;48.858;8.530;2024-01-30T05:57:32;4.90;;;4.60;;
45650;SDS011;31365;48.858;8.530;2024-01-30T06:00:01;4.53;;;4.23;;
45650;SDS011;31365;48.858;8.530;2024-01-30T06:02:32;5.03;;;4.73;;
45650;SDS011;31365;48.858;8.530;2024-01-30T06:05:00;4.87;;;4.57;;
45650;SDS011;31365;48.858;8.530;2024-01-30T06:07:30;5.20;;;4.80;;
45650;SDS011;31365;48.858;8.530;2024-01-30T06:10:02;5.40;;;5.00;;
45650;SDS011;31365;48.858;8.530;2024-01-30T06:12:32;5.80;;;5.30;;
45650;SDS011;31365;48.858;8.530;2024-01-30T06:15:00;5.70;;;5.20;;
45650;SDS011;31365;48.858;8.530;2024-01-30T06:17:29;6.20;;;4.77;;
45650;SDS011;31365;48.858;8.530;2024-01-30T06:19:57;5.20;;;4.80;;
45650;SDS011;31365;48.858;8.530;2024-01-30T06:22:26;5.80;;;5.20;;
45650;SDS011;31365;48.858;8.530;2024-01-30T06:24:55;5.63;;;5.33;;
45650;SDS011;31365;48.858;8.530;2024-01-30T06:27:24;6.77;;;5.47;;
45650;SDS011;31365;48.858;8.530;2024-01-30T06:29:53;5.63;;;5.27;;
45650;SDS011;31365;48.858;8.530;2024-01-30T06:32:21;5.37;;;5.07;;
45650;SDS011;31365;48.858;8.530;2024-01-30T06:34:50;6.40;;;6.00;;
45650;SDS011;31365;48.858;8.530;2024-01-30T06:37:19;5.90;;;5.50;;
45650;SDS011;31365;48.858;8.530;2024-01-30T06:39:48;5.87;;;5.43;;
45650;SDS011;31365;48.858;8.530;2024-01-30T06:42:18;5.40;;;5.00;;
45650;SDS011;31365;48.858;8.530;2024-01-30T06:44:47;6.30;;;5.90;;
45650;SDS011;31365;48.858;8.530;2024-01-30T06:47:15;6.17;;;5.80;;
45650;SDS011;31365;48.858;8.530;2024-01-30T06:49:42;5.40;;;5.10;;
45650;SDS011;31365;48.858;8.530;2024-01-30T06:52:12;5.23;;;4.93;;
45650;SDS011;31365;48.858;8.530;2024-01-30T06:54:40;5.40;;;5.10;;
45650;SDS011;31365;48.858;8.530;2024-01-30T06:57:09;4.90;;;4.60;;
45650;SDS011;31365;48.858;8.530;2024-01-30T06:59:40;5.23;;;4.93;;
45650;SDS011;31365;48.858;8.530;2024-01-30T07:02:10;5.07;;;4.77;;
45650;SDS011;31365;48.858;8.530;2024-01-30T07:04:38;5.13;;;4.83;;
45650;SDS011;31365;48.858;8.530;2024-01-30T07:07:13;5.60;;;5.20;;
45650;SDS011;31365;48.858;8.530;2024-01-30T07:09:42;5.70;;;5.40;;
45650;SDS011;31365;48.858;8.530;2024-01-30T07:12:10;5.67;;;5.37;;
45650;SDS011;31365;48.858;8.530;2024-01-30T07:14:40;5.40;;;5.00;;
45650;SDS011;31365;48.858;8.530;2024-01-30T07:17:09;5.27;;;4.97;;
45650;SDS011;31365;48.858;8.530;2024-01-30T07:19:37;5.20;;;4.90;;
45650;SDS011;31365;48.858;8.530;2024-01-30T07:22:06;5.30;;;5.00;;
45650;SDS011;31365;48.858;8.530;2024-01-30T07:24:34;5.53;;;5.13;;
45650;SDS011;31365;48.858;8.530;2024-01-30T07:27:02;5.93;;;5.53;;
45650;SDS011;31365;48.858;8.530;2024-01-30T07:29:31;5.80;;;5.47;;
45650;SDS011;31365;48.858;8.530;2024-01-30T07:32:01;5.73;;;5.43;;
45650;SDS011;31365;48.858;8.530;2024-01-30T07:34:29;5.63;;;5.13;;
45650;SDS011;31365;48.858;8.530;2024-01-30T07:37:07;16.20;;;14.50;;
45650;SDS011;31365;48.858;8.530;2024-01-30T07:39:36;12.73;;;10.37;;
45650;SDS011;31365;48.858;8.530;2024-01-30T07:42:04;7.60;;;7.00;;
45650;SDS011;31365;48.858;8.530;2024-01-30T07:44:33;10.07;;;9.33;;
45650;SDS011;31365;48.858;8.530;2024-01-30T07:47:04;6.57;;;6.10;;
45650;SDS011;31365;48.858;8.530;2024-01-30T07:49:33;6.70;;;6.20;;
45650;SDS011;31365;48.858;8.530;2024-01-30T07:52:02;6.20;;;5.80;;
45650;SDS011;31365;48.858;8.530;2024-01-30T07:54:33;6.87;;;6.37;;
45650;SDS011;31365;48.858;8.530;2024-01-30T07:57:02;5.30;;;5.00;;
45650;SDS011;31365;48.858;8.530;2024-01-30T07:59:30;6.03;;;5.50;;
45650;SDS011;31365;48.858;8.530;2024-01-30T08:01:59;6.37;;;5.77;;
45650;SDS011;31365;48.858;8.530;2024-01-30T08:04:29;5.00;;;4.70;;
45650;SDS011;31365;48.858;8.530;2024-01-30T08:06:57;5.43;;;5.03;;
45650;SDS011;31365;48.858;8.530;2024-01-30T08:09:26;5.10;;;4.80;;
45650;SDS011;31365;48.858;8.530;2024-01-30T08:11:55;5.33;;;5.03;;
45650;SDS011;31365;48.858;8.530;2024-01-30T08:14:23;5.70;;;5.20;;
45650;SDS011;31365;48.858;8.530;2024-01-30T08:16:52;5.60;;;5.20;;
45650;SDS011;31365;48.858;8.530;2024-01-30T08:19:20;6.07;;;5.47;;
45650;SDS011;31365;48.858;8.530;2024-01-30T08:21:50;5.50;;;5.13;;
45650;SDS011;31365;48.858;8.530;2024-01-30T08:24:18;6.53;;;6.03;;
45650;SDS011;31365;48.858;8.530;2024-01-30T08:26:46;6.50;;;6.00;;
45650;SDS011;31365;48.858;8.530;2024-01-30T08:29:15;5.83;;;5.43;;
45650;SDS011;31365;48.858;8.530;2024-01-30T08:31:43;5.77;;;5.37;;
45650;SDS011;31365;48.858;8.530;2024-01-30T08:34:12;6.43;;;5.70;;
45650;SDS011;31365;48.858;8.530;2024-01-30T08:36:41;8.20;;;7.70;;
45650;SDS011;31365;48.858;8.530;2024-01-30T08:39:11;5.77;;;5.37;;
45650;SDS011;31365;48.858;8.530;2024-01-30T08:41:39;5.93;;;5.13;;
45650;SDS011;31365;48.858;8.530;2024-01-30T08:44:08;5.17;;;4.83;;
45650;SDS011;31365;48.858;8.530;2024-01-30T08:46:37;5.90;;;5.60;;
45650;SDS011;31365;48.858;8.530;2024-01-30T08:49:06;6.47;;;6.07;;
45650;SDS011;31365;48.858;8.530;2024-01-30T08:51:35;6.37;;;6.00;;
45650;SDS011;31365;48.858;8.530;2024-01-30T08:54:03;6.77;;;6.37;;
45650;SDS011;31365;48.858;8.530;2024-01-30T08:56:33;6.13;;;5.63;;
45650;SDS011;31365;48.858;8.530;2024-01-30T08:59:01;5.67;;;5.37;;
45650;SDS011;31365;48.858;8.530;2024-01-30T09:01:30;7.00;;;6.60;;
45650;SDS011;31365;48.858;8.530;2024-01-30T09:03:58;5.73;;;5.30;;
45650;SDS011;31365;48.858;8.530;2024-01-30T09:06:26;6.70;;;6.27;;
45650;SDS011;31365;48.858;8.530;2024-01-30T09:08:55;6.87;;;6.00;;
45650;SDS011;31365;48.858;8.530;2024-01-30T09:11:24;6.63;;;6.13;;
45650;SDS011;31365;48.858;8.530;2024-01-30T09:13:54;6.17;;;5.57;;
45650;SDS011;31365;48.858;8.530;2024-01-30T09:16:22;5.60;;;5.30;;
45650;SDS011;31365;48.858;8.530;2024-01-30T09:18:51;8.37;;;6.30;;
45650;SDS011;31365;48.858;8.530;2024-01-30T09:21:19;6.23;;;5.73;;
45650;SDS011;31365;48.858;8.530;2024-01-30T09:23:48;7.83;;;7.13;;
45650;SDS011;31365;48.858;8.530;2024-01-30T09:26:16;10.10;;;7.77;;
45650;SDS011;31365;48.858;8.530;2024-01-30T09:28:45;7.97;;;7.17;;
45650;SDS011;31365;48.858;8.530;2024-01-30T09:31:14;8.00;;;7.20;;
45650;SDS011;31365;48.858;8.530;2024-01-30T09:33:45;9.73;;;7.07;;
45650;SDS011;31365;48.858;8.530;2024-01-30T09:36:14;9.77;;;8.97;;
45650;SDS011;31365;48.858;8.530;2024-01-30T09:38:45;13.93;;;9.37;;
45650;SDS011;31365;48.858;8.530;2024-01-30T09:41:13;7.83;;;7.23;;
45650;SDS011;31365;48.858;8.530;2024-01-30T09:43:43;7.57;;;6.90;;
45650;SDS011;31365;48.858;8.530;2024-01-30T09:46:18;7.03;;;6.53;;
45650;SDS011;31365;48.858;8.530;2024-01-30T09:48:50;6.77;;;6.23;;
45650;SDS011;31365;48.858;8.530;2024-01-30T09:51:20;5.97;;;5.47;;
45650;SDS011;31365;48.858;8.530;2024-01-30T09:53:50;7.33;;;6.83;;
45650;SDS011;31365;48.858;8.530;2024-01-30T09:56:18;8.70;;;7.40;;
45650;SDS011;31365;48.858;8.530;2024-01-30T09:58:48;7.73;;;6.97;;
45650;SDS011;31365;48.858;8.530;2024-01-30T10:01:18;10.37;;;7.87;;
45650;SDS011;31365;48.858;8.530;2024-01-30T10:03:50;7.43;;;6.93;;
45650;SDS011;31365;48.858;8.530;2024-01-30T10:06:19;8.07;;;7.30;;
45650;SDS011;31365;48.858;8.530;2024-01-30T10:08:50;7.50;;;6.90;;
45650;SDS011;31365;48.858;8.530;2024-01-30T10:11:18;7.90;;;7.10;;
45650;SDS011;31365;48.858;8.530;2024-01-30T10:13:47;8.33;;;6.73;;
45650;SDS011;31365;48.858;8.530;2024-01-30T10:16:18;10.13;;;6.87;;
45650;SDS011;31365;48.858;8.530;2024-01-30T10:18:47;7.10;;;6.50;;
45650;SDS011;31365;48.858;8.530;2024-01-30T10:21:15;6.90;;;6.30;;
45650;SDS011;31365;48.858;8.530;2024-01-30T10:23:44;8.00;;;6.10;;
45650;SDS011;31365;48.858;8.530;2024-01-30T10:26:13;6.37;;;5.77;;
45650;SDS011;31365;48.858;8.530;2024-01-30T10:28:44;6.43;;;5.93;;
45650;SDS011;31365;48.858;8.530;2024-01-30T10:31:15;6.50;;;5.63;;
45650;SDS011;31365;48.858;8.530;2024-01-30T10:33:46;6.90;;;6.20;;
45650;SDS011;31365;48.858;8.530;2024-01-30T10:36:15;6.30;;;5.40;;
45650;SDS011;31365;48.858;8.530;2024-01-30T10:38:46;6.80;;;6.10;;
45650;SDS011;31365;48.858;8.530;2024-01-30T10:41:19;10.27;;;6.27;;
45650;SDS011;31365;48.858;8.530;2024-01-30T10:43:56;7.40;;;6.70;;
45650;SDS011;31365;48.858;8.530;2024-01-30T10:46:32;11.00;;;7.53;;
45650;SDS011;31365;48.858;8.530;2024-01-30T10:49:02;10.13;;;7.53;;
45650;SDS011;31365;48.858;8.530;2024-01-30T10:51:33;7.90;;;7.10;;
45650;SDS011;31365;48.858;8.530;2024-01-30T10:54:04;6.40;;;5.80;;
45650;SDS011;31365;48.858;8.530;2024-01-30T10:56:34;6.43;;;5.03;;
45650;SDS011;31365;48.858;8.530;2024-01-30T10:59:04;8.47;;;4.47;;
45650;SDS011;31365;48.858;8.530;2024-01-30T11:01:38;8.13;;;5.37;;
45650;SDS011;31365;48.858;8.530;2024-01-30T11:04:08;6.50;;;5.70;;
45650;SDS011;31365;48.858;8.530;2024-01-30T11:06:40;7.50;;;6.80;;
45650;SDS011;31365;48.858;8.530;2024-01-30T11:09:10;6.00;;;5.37;;
45650;SDS011;31365;48.858;8.530;2024-01-30T11:11:49;6.57;;;5.97;;
45650;SDS011;31365;48.858;8.530;2024-01-30T11:14:25;8.87;;;6.00;;
45650;SDS011;31365;48.858;8.530;2024-01-30T11:16:58;6.17;;;5.67;;
45650;SDS011;31365;48.858;8.530;2024-01-30T11:19:30;7.07;;;5.20;;
45650;SDS011;31365;48.858;8.530;2024-01-30T11:21:59;6.47;;;5.87;;
45650;SDS011;31365;48.858;8.530;2024-01-30T11:24:28;5.30;;;4.80;;
45650;SDS011;31365;48.858;8.530;2024-01-30T11:26:56;6.57;;;4.90;;
45650;SDS011;31365;48.858;8.530;2024-01-30T11:29:27;5.50;;;5.00;;
45650;SDS011;31365;48.858;8.530;2024-01-30T11:31:57;7.77;;;4.77;;
45650;SDS011;31365;48.858;8.530;2024-01-30T11:34:26;5.90;;;4.73;;
45650;SDS011;31365;48.858;8.530;2024-01-30T11:36:56;27.07;;;7.50;;
45650;SDS011;31365;48.858;8.530;2024-01-30T11:39:26;16.13;;;7.83;;
45650;SDS011;31365;48.858;8.530;2024-01-30T11:41:56;6.13;;;5.53;;
45650;SDS011;31365;48.858;8.530;2024-01-30T11:44:26;5.57;;;5.03;;
45650;SDS011;31365;48.858;8.530;2024-01-30T11:46:54;5.80;;;5.30;;
45650;SDS011;31365;48.858;8.530;2024-01-30T11:49:24;8.50;;;5.40;;
45650;SDS011;31365;48.858;8.530;2024-01-30T11:51:54;14.43;;;5.72;;
45650;SDS011;31365;48.858;8.530;2024-01-30T11:54:22;17.55;;;6.25;;
45650;SDS011;31365;48.858;8.530;2024-01-30T11:56:50;9.27;;;6.80;;
45650;SDS011;31365;48.858;8.530;2024-01-30T11:59:19;16.25;;;6.63;;
45650;SDS011;31365;48.858;8.530;2024-01-30T12:01:47;11.18;;;6.80;;
45650;SDS011;31365;48.858;8.530;2024-01-30T12:04:16;9.95;;;5.65;;
45650;SDS011;31365;48.858;8.530;2024-01-30T12:06:46;9.07;;;6.13;;
45650;SDS011;31365;48.858;8.530;2024-01-30T12:09:19;10.27;;;6.13;;
45650;SDS011;31365;48.858;8.530;2024-01-30T12:11:48;11.88;;;9.95;;
45650;SDS011;31365;48.858;8.530;2024-01-30T12:14:18;6.85;;;6.00;;
45650;SDS011;31365;48.858;8.530;2024-01-30T12:16:48;9.95;;;6.57;;
45650;SDS011;31365;48.858;8.530;2024-01-30T12:19:23;15.75;;;8.93;;
45650;SDS011;31365;48.858;8.530;2024-01-30T12:21:57;8.48;;;7.68;;
45650;SDS011;31365;48.858;8.530;2024-01-30T12:24:26;8.23;;;7.10;;
45650;SDS011;31365;48.858;8.530;2024-01-30T12:26:57;6.20;;;5.60;;
45650;SDS011;31365;48.858;8.530;2024-01-30T12:29:27;9.80;;;6.05;;
45650;SDS011;31365;48.858;8.530;2024-01-30T12:32:01;14.35;;;9.68;;
45650;SDS011;31365;48.858;8.530;2024-01-30T12:34:30;7.68;;;6.60;;
45650;SDS011;31365;48.858;8.530;2024-01-30T12:37:13;12.07;;;9.55;;
45650;SDS011;31365;48.858;8.530;2024-01-30T12:39:46;5.40;;;4.57;;
45650;SDS011;31365;48.858;8.530;2024-01-30T12:42:14;8.07;;;4.88;;
45650;SDS011;31365;48.858;8.530;2024-01-30T12:44:43;5.45;;;5.00;;
45650;SDS011;31365;48.858;8.530;2024-01-30T12:47:11;5.78;;;5.22;;
45650;SDS011;31365;48.858;8.530;2024-01-30T12:49:40;10.55;;;5.47;;
45650;SDS011;31365;48.858;8.530;2024-01-30T12:52:08;9.40;;;5.47;;
45650;SDS011;31365;48.858;8.530;2024-01-30T12:54:38;11.55;;;5.10;;
45650;SDS011;31365;48.858;8.530;2024-01-30T12:57:06;11.90;;;5.97;;
45650;SDS011;31365;48.858;8.530;2024-01-30T12:59:35;8.68;;;5.68;;
45650;SDS011;31365;48.858;8.530;2024-01-30T13:02:03;9.18;;;5.35;;
45650;SDS011;31365;48.858;8.530;2024-01-30T13:04:32;18.77;;;7.20;;
45650;SDS011;31365;48.858;8.530;2024-01-30T13:07:02;11.25;;;6.63;;
45650;SDS011;31365;48.858;8.530;2024-01-30T13:09:31;14.95;;;10.18;;
45650;SDS011;31365;48.858;8.530;2024-01-30T13:12:01;9.43;;;5.72;;
45650;SDS011;31365;48.858;8.530;2024-01-30T13:14:29;7.32;;;5.32;;
45650;SDS011;31365;48.858;8.530;2024-01-30T13:16:57;6.75;;;6.15;;
45650;SDS011;31365;48.858;8.530;2024-01-30T13:19:25;6.65;;;5.57;;
45650;SDS011;31365;48.858;8.530;2024-01-30T13:21:54;11.82;;;5.88;;
45650;SDS011;31365;48.858;8.530;2024-01-30T13:24:23;11.93;;;5.13;;
45650;SDS011;31365;48.858;8.530;2024-01-30T13:26:52;4.70;;;4.38;;
45650;SDS011;31365;48.858;8.530;2024-01-30T13:29:22;8.00;;;4.70;;
45650;SDS011;31365;48.858;8.530;2024-01-30T13:31:50;7.38;;;4.70;;
45650;SDS011;31365;48.858;8.530;2024-01-30T13:34:19;5.80;;;5.20;;
45650;SDS011;31365;48.858;8.530;2024-01-30T13:36:47;5.97;;;5.40;;
45650;SDS011;31365;48.858;8.530;2024-01-30T13:39:16;5.60;;;5.10;;
45650;SDS011;31365;48.858;8.530;2024-01-30T13:41:49;6.22;;;5.63;;
45650;SDS011;31365;48.858;8.530;2024-01-30T13:44:17;6.10;;;5.60;;
45650;SDS011;31365;48.858;8.530;2024-01-30T13:46:48;7.50;;;5.00;;
45650;SDS011;31365;48.858;8.530;2024-01-30T13:49:17;5.72;;;5.20;;
45650;SDS011;31365;48.858;8.530;2024-01-30T13:51:46;9.90;;;7.07;;
45650;SDS011;31365;48.858;8.530;2024-01-30T13:54:15;11.47;;;8.57;;
45650;SDS011;31365;48.858;8.530;2024-01-30T13:56:43;6.55;;;5.65;;
45650;SDS011;31365;48.858;8.530;2024-01-30T13:59:11;5.97;;;5.47;;
45650;SDS011;31365;48.858;8.530;2024-01-30T14:01:40;8.33;;;6.83;;
45650;SDS011;31365;48.858;8.530;2024-01-30T14:04:10;6.40;;;5.83;;
45650;SDS011;31365;48.858;8.530;2024-01-30T14:06:41;5.10;;;4.70;;
45650;SDS011;31365;48.858;8.530;2024-01-30T14:09:22;7.27;;;6.37;;
45650;SDS011;31365;48.858;8.530;2024-01-30T14:11:50;6.07;;;5.43;;
45650;SDS011;31365;48.858;8.530;2024-01-30T14:14:19;15.57;;;11.30;;
45650;SDS011;31365;48.858;8.530;2024-01-30T14:16:48;10.20;;;5.53;;
45650;SDS011;31365;48.858;8.530;2024-01-30T14:19:17;11.77;;;7.77;;
45650;SDS011;31365;48.858;8.530;2024-01-30T14:21:46;5.90;;;5.33;;
45650;SDS011;31365;48.858;8.530;2024-01-30T14:24:15;7.23;;;6.40;;
45650;SDS011;31365;48.858;8.530;2024-01-30T14:26:44;8.07;;;7.00;;
45650;SDS011;31365;48.858;8.530;2024-01-30T14:29:13;10.23;;;7.33;;
45650;SDS011;31365;48.858;8.530;2024-01-30T14:31:41;9.50;;;7.00;;
45650;SDS011;31365;48.858;8.530;2024-01-30T14:34:10;6.60;;;6.00;;
45650;SDS011;31365;48.858;8.530;2024-01-30T14:36:40;29.07;;;9.60;;
45650;SDS011;31365;48.858;8.530;2024-01-30T14:39:09;18.33;;;11.67;;
45650;SDS011;31365;48.858;8.530;2024-01-30T14:41:37;15.67;;;10.47;;
45650;SDS011;31365;48.858;8.530;2024-01-30T14:44:06;18.47;;;8.90;;
45650;SDS011;31365;48.858;8.530;2024-01-30T14:46:35;19.67;;;7.27;;
45650;SDS011;31365;48.858;8.530;2024-01-30T14:49:03;16.53;;;8.40;;
45650;SDS011;31365;48.858;8.530;2024-01-30T14:51:33;9.47;;;5.57;;
45650;SDS011;31365;48.858;8.530;2024-01-30T14:54:03;7.30;;;5.93;;
45650;SDS011;31365;48.858;8.530;2024-01-30T14:56:32;5.50;;;5.00;;
45650;SDS011;31365;48.858;8.530;2024-01-30T14:59:00;9.03;;;4.97;;